Pierpont, Missouri
Current Conditions -  °F | °C
As of 5:12 AM on Friday 24 Oct 2014 (Local Time) from KCOU Reporting Station
Moderate Fog Moderate Fog  
Wind Chill: 52°   Ceiling: 1100
Heat Index: 52°   Visibility: 0.25mi
Dew Point: 52°   Wind: 6mph
Humidity: 100%   Direction: 220°SW
Pressure: 30.1"   Gusts: NA
Location:  38.8994°N, 92.2391°W
Report Text: KCOU 241012Z AUTO 22005KT 1/4SM FG VV011 11/11 A3010 RMK AO2 T01110111
Loading
Personal Weather Stations






























Interactive Weather Map
Tropical Storm Tracking
New forecast layout! Learn more

10-Day Weather Forecast

Advertisements
Track Severe Weather on mobile